Time;durP1;ratioP1;P1;durP2;ratioP2;P2;SDS_P1;SDS_P2;PMS_P1;PMS_P2;Temp;Humidity;BMP_temperature;BMP_pressure;BME280_temperature;BME280_humidity;BME280_pressure;Samples;Min_cycle;Max_cycle;Signal;HPM_P1;HPM_P2
2023/07/14 00:00:24;;;;;;;5.43;2.17;;;19.30;99.90;;;;;;5073872;28;20170;-50
2023/07/14 00:02:52;;;;;;;5.68;2.22;;;19.30;99.90;;;;;;5073440;28;20166;-52
2023/07/14 00:05:22;;;;;;;7.22;2.70;;;19.30;99.90;;;;;;5073800;28;20158;-51
2023/07/14 00:07:49;;;;;;;5.60;2.10;;;19.30;99.90;;;;;;5073360;28;20289;-52
2023/07/14 00:10:31;;;;;;;4.35;2.08;;;19.20;99.90;;;;;;5073488;28;20201;-51
2023/07/14 00:13:01;;;;;;;5.75;2.30;;;19.20;99.90;;;;;;5073851;28;20185;-52
2023/07/14 00:15:27;;;;;;;6.30;2.83;;;19.10;99.90;;;;;;5073583;28;20173;-52
2023/07/14 00:17:56;;;;;;;6.55;2.63;;;19.10;99.90;;;;;;5073451;28;20166;-50
2023/07/14 00:20:30;;;;;;;8.80;2.45;;;19.10;99.90;;;;;;5073490;28;20162;-50
2023/07/14 00:22:57;;;;;;;7.65;2.70;;;19.10;99.90;;;;;;5073430;28;20196;-52
2023/07/14 00:25:25;;;;;;;4.72;2.33;;;19.00;99.90;;;;;;5073423;28;20526;-52
2023/07/14 00:27:52;;;;;;;4.28;2.13;;;18.90;99.90;;;;;;5073216;28;20696;-51
2023/07/14 00:30:23;;;;;;;4.32;2.17;;;18.90;99.90;;;;;;5073298;28;20189;-52
2023/07/14 00:32:50;;;;;;;6.55;2.53;;;18.90;99.90;;;;;;5073500;28;20216;-51
2023/07/14 00:35:22;;;;;;;4.15;2.10;;;18.70;99.90;;;;;;5073163;28;20657;-50
2023/07/14 00:37:49;;;;;;;6.43;2.42;;;18.70;99.90;;;;;;5073032;28;20257;-51
2023/07/14 00:40:25;;;;;;;4.35;2.22;;;18.80;99.90;;;;;;5073003;28;20220;-50
2023/07/14 00:42:57;;;;;;;5.55;2.40;;;18.80;99.90;;;;;;5072895;28;20194;-49
2023/07/14 00:45:28;;;;;;;4.68;2.33;;;18.80;99.90;;;;;;5072960;28;20174;-49
2023/07/14 00:48:03;;;;;;;5.13;2.22;;;18.90;99.90;;;;;;5072929;28;20247;-49
2023/07/14 00:50:34;;;;;;;4.45;2.50;;;18.90;99.90;;;;;;5073397;28;20177;-49
2023/07/14 00:53:03;;;;;;;7.25;2.80;;;18.90;99.90;;;;;;5073252;28;20191;-49
2023/07/14 00:55:46;;;;;;;5.10;2.53;;;19.00;99.90;;;;;;5073104;28;20544;-49
2023/07/14 00:58:24;;;;;;;4.47;2.95;;;18.80;99.90;;;;;;5072947;28;20178;-49
2023/07/14 01:00:59;;;;;;;6.70;2.35;;;18.70;99.90;;;;;;5072665;28;20230;-51
2023/07/14 01:03:24;;;;;;;3.80;2.40;;;18.70;99.90;;;;;;5072597;28;20641;-49
2023/07/14 01:05:52;;;;;;;7.90;3.05;;;18.60;99.90;;;;;;5071402;28;20242;-49
2023/07/14 01:08:18;;;;;;;4.93;2.97;;;18.50;99.90;;;;;;5072680;28;20189;-49
2023/07/14 01:10:44;;;;;;;5.47;2.70;;;18.50;99.90;;;;;;5054413;28;20636;-49
2023/07/14 01:13:10;;;;;;;8.05;2.75;;;18.60;99.90;;;;;;5072535;28;20211;-49
2023/07/14 01:15:38;;;;;;;6.55;2.53;;;18.60;99.90;;;;;;5072302;28;20174;-49
2023/07/14 01:18:04;;;;;;;9.55;3.10;;;18.70;99.90;;;;;;5072362;28;20161;-49
2023/07/14 01:20:30;;;;;;;6.43;2.83;;;18.70;99.90;;;;;;5072744;28;20300;-52
2023/07/14 01:22:59;;;;;;;5.43;3.05;;;18.70;99.90;;;;;;5072093;28;20523;-50
2023/07/14 01:25:36;;;;;;;3.92;2.85;;;18.70;99.90;;;;;;5072140;28;20166;-52
2023/07/14 01:28:13;;;;;;;11.77;4.07;;;18.70;99.90;;;;;;5072538;28;20173;-51
2023/07/14 01:30:40;;;;;;;11.90;3.60;;;18.60;99.90;;;;;;5072109;28;20162;-51
2023/07/14 01:33:13;;;;;;;8.75;4.65;;;18.50;99.90;;;;;;5072009;28;20170;-52
2023/07/14 01:35:45;;;;;;;14.07;3.97;;;18.60;99.90;;;;;;5072004;28;20614;-51
2023/07/14 01:38:10;;;;;;;14.95;4.20;;;18.70;99.90;;;;;;5071841;28;20644;-50
2023/07/14 01:40:36;;;;;;;10.65;4.05;;;18.70;99.90;;;;;;5071913;28;20245;-51
2023/07/14 01:43:06;;;;;;;9.70;4.05;;;18.60;99.90;;;;;;5072512;28;20517;-50
2023/07/14 01:45:43;;;;;;;5.57;3.60;;;18.60;99.90;;;;;;5072185;28;20158;-50
2023/07/14 01:48:13;;;;;;;6.85;3.65;;;18.60;99.90;;;;;;5071754;28;20177;-52
2023/07/14 01:50:47;;;;;;;9.77;3.63;;;18.60;99.90;;;;;;5071865;28;20165;-51
2023/07/14 01:53:19;;;;;;;10.48;3.80;;;18.60;99.90;;;;;;5071807;28;20162;-54
2023/07/14 01:55:46;;;;;;;9.20;2.95;;;18.60;99.90;;;;;;5071775;28;20197;-51
2023/07/14 01:58:16;;;;;;;7.35;3.20;;;18.60;99.90;;;;;;5071943;28;20197;-52
2023/07/14 02:00:44;;;;;;;8.13;3.10;;;18.50;99.90;;;;;;5071748;28;20165;-52
2023/07/14 02:03:13;;;;;;;4.38;2.45;;;18.50;99.90;;;;;;5071631;28;20597;-53
2023/07/14 02:05:39;;;;;;;8.93;2.72;;;18.40;99.90;;;;;;5071622;28;20252;-52
2023/07/14 02:08:10;;;;;;;6.13;2.35;;;18.40;99.90;;;;;;5071937;28;20594;-52
2023/07/14 02:10:35;;;;;;;5.82;2.70;;;18.40;99.90;;;;;;5071339;28;20213;-52
2023/07/14 02:13:02;;;;;;;3.38;2.08;;;18.30;99.90;;;;;;5071925;28;20633;-52
2023/07/14 02:15:31;;;;;;;7.32;2.70;;;18.30;99.90;;;;;;5071628;28;20181;-52
2023/07/14 02:17:58;;;;;;;8.68;2.55;;;18.30;99.90;;;;;;5071376;28;20265;-52
2023/07/14 02:20:29;;;;;;;6.68;2.55;;;18.30;99.90;;;;;;5071796;28;20166;-52
2023/07/14 02:22:56;;;;;;;10.52;2.75;;;18.20;99.90;;;;;;5071420;28;20162;-52
2023/07/14 02:25:26;;;;;;;9.60;2.95;;;18.20;99.90;;;;;;5071344;28;20165;-52
2023/07/14 02:27:52;;;;;;;5.80;2.42;;;18.20;99.90;;;;;;5071147;28;20615;-50
2023/07/14 02:30:21;;;;;;;4.95;2.72;;;18.10;99.90;;;;;;5071565;28;20177;-51
2023/07/14 02:32:51;;;;;;;5.10;2.55;;;18.10;99.90;;;;;;5071327;28;20179;-52
2023/07/14 02:35:33;;;;;;;6.82;3.25;;;18.10;99.90;;;;;;5071374;28;20174;-51
2023/07/14 02:38:06;;;;;;;8.40;2.60;;;18.00;99.90;;;;;;5071611;28;20174;-52
2023/07/14 02:40:52;;;;;;;4.88;2.53;;;18.00;99.90;;;;;;5071656;28;20166;-50
2023/07/14 02:43:20;;;;;;;8.73;3.08;;;17.90;99.90;;;;;;5071379;28;20180;-52
2023/07/14 02:46:23;;;;;;;10.00;2.75;;;17.90;99.90;;;;;;5071401;28;20533;-49
2023/07/14 02:48:51;;;;;;;9.10;2.65;;;17.90;99.90;;;;;;5019875;28;20182;-50
2023/07/14 02:51:17;;;;;;;8.00;2.92;;;17.80;99.90;;;;;;5071201;28;20170;-50
2023/07/14 02:53:43;;;;;;;6.97;2.58;;;17.80;99.90;;;;;;5071100;28;20177;-50
2023/07/14 02:56:08;;;;;;;6.38;2.75;;;17.80;99.90;;;;;;5071117;28;20199;-49
2023/07/14 02:58:35;;;;;;;4.90;2.70;;;17.80;99.90;;;;;;5071051;28;20170;-49
2023/07/14 03:01:01;;;;;;;9.00;2.60;;;17.80;99.90;;;;;;5071362;28;20166;-50
2023/07/14 03:03:27;;;;;;;5.40;2.60;;;17.80;99.90;;;;;;5071273;28;20178;-50
2023/07/14 03:05:54;;;;;;;6.20;2.80;;;17.80;99.90;;;;;;5070618;28;20198;-49
2023/07/14 03:08:20;;;;;;;6.57;2.78;;;17.80;99.90;;;;;;5070662;28;20177;-52
2023/07/14 03:10:48;;;;;;;7.50;2.95;;;17.80;99.90;;;;;;5070698;28;20291;-50
2023/07/14 03:13:15;;;;;;;10.27;3.17;;;17.70;99.90;;;;;;5071032;28;20166;-51
2023/07/14 03:15:42;;;;;;;5.07;2.78;;;17.70;99.90;;;;;;5070928;28;20154;-52
2023/07/14 03:18:08;;;;;;;6.22;2.92;;;17.70;99.90;;;;;;5070876;28;20594;-51
2023/07/14 03:20:34;;;;;;;5.95;3.00;;;17.70;99.90;;;;;;5071181;28;20253;-50
2023/07/14 03:22:59;;;;;;;8.57;2.80;;;17.70;99.90;;;;;;5071204;28;20231;-51
2023/07/14 03:25:26;;;;;;;5.50;2.70;;;17.70;99.90;;;;;;5070843;28;20574;-50
2023/07/14 03:27:52;;;;;;;6.60;2.75;;;17.70;99.90;;;;;;5071067;28;20233;-49
2023/07/14 03:30:17;;;;;;;4.18;2.50;;;17.60;99.90;;;;;;5074406;28;20216;-51
2023/07/14 03:32:43;;;;;;;10.25;3.08;;;17.60;99.90;;;;;;5074226;28;20184;-53
2023/07/14 03:35:08;;;;;;;4.47;3.00;;;17.60;99.90;;;;;;5074551;28;20544;-49
2023/07/14 03:37:34;;;;;;;7.18;3.13;;;17.60;99.90;;;;;;5074153;28;20171;-49
2023/07/14 03:40:00;;;;;;;8.38;2.72;;;17.60;99.90;;;;;;5074891;28;20193;-49
2023/07/14 03:42:25;;;;;;;7.07;2.83;;;17.40;99.90;;;;;;5074438;28;20162;-49
2023/07/14 03:44:51;;;;;;;5.53;3.00;;;17.50;99.90;;;;;;5074154;28;20174;-49
2023/07/14 03:47:16;;;;;;;8.70;3.40;;;17.50;99.90;;;;;;5074072;28;20205;-50
2023/07/14 03:49:42;;;;;;;4.78;2.88;;;17.40;99.90;;;;;;5074011;28;20162;-49
2023/07/14 03:52:08;;;;;;;10.20;2.80;;;17.30;99.90;;;;;;5074374;28;20295;-49
2023/07/14 03:54:34;;;;;;;4.90;2.65;;;17.30;99.90;;;;;;5074011;28;20296;-50
2023/07/14 03:56:59;;;;;;;6.40;2.83;;;17.40;99.90;;;;;;5074281;28;20220;-49
2023/07/14 03:59:25;;;;;;;6.53;3.20;;;17.40;99.90;;;;;;5074184;28;20162;-50
2023/07/14 04:01:51;;;;;;;10.23;3.35;;;17.40;99.90;;;;;;5073850;28;20174;-49
2023/07/14 04:04:19;;;;;;;8.77;3.03;;;17.50;99.90;;;;;;5073736;28;20636;-49
2023/07/14 04:06:45;;;;;;;7.55;3.33;;;17.40;99.90;;;;;;5073726;28;20244;-49
2023/07/14 04:09:10;;;;;;;8.90;3.92;;;17.40;99.90;;;;;;5073644;28;20166;-49
2023/07/14 04:11:37;;;;;;;8.75;4.05;;;17.40;99.90;;;;;;5073484;28;20283;-49
2023/07/14 04:14:04;;;;;;;11.75;3.78;;;17.30;99.90;;;;;;5073768;28;20253;-50
2023/07/14 04:16:29;;;;;;;10.10;3.88;;;17.30;99.90;;;;;;5073549;28;20521;-50
2023/07/14 04:18:55;;;;;;;10.23;3.90;;;17.40;99.90;;;;;;5073442;28;20215;-48
2023/07/14 04:21:24;;;;;;;12.52;3.47;;;17.40;99.90;;;;;;5073473;28;20177;-49
2023/07/14 04:23:52;;;;;;;9.95;4.03;;;17.30;99.90;;;;;;5055567;28;20170;-50
2023/07/14 04:26:17;;;;;;;6.78;3.40;;;17.40;99.90;;;;;;5073319;28;20198;-50
2023/07/14 04:28:43;;;;;;;10.25;3.80;;;17.50;99.90;;;;;;5073349;28;20166;-49
2023/07/14 04:31:08;;;;;;;5.13;3.40;;;17.50;99.90;;;;;;5073221;28;20257;-49
2023/07/14 04:33:34;;;;;;;8.13;3.47;;;17.50;99.90;;;;;;5073172;28;20566;-49
2023/07/14 04:36:00;;;;;;;8.77;3.55;;;17.60;99.90;;;;;;5073333;28;20661;-48
2023/07/14 04:38:26;;;;;;;6.25;3.20;;;17.70;99.90;;;;;;5073139;28;20246;-49
2023/07/14 04:40:52;;;;;;;7.07;3.42;;;17.70;99.90;;;;;;5072941;28;20630;-49
2023/07/14 04:43:18;;;;;;;6.88;3.40;;;17.70;99.90;;;;;;5073082;28;20249;-49
2023/07/14 04:45:46;;;;;;;6.65;3.38;;;17.70;99.90;;;;;;5072883;28;20170;-50
2023/07/14 04:48:17;;;;;;;7.30;3.28;;;17.80;99.90;;;;;;5072927;28;20247;-49
2023/07/14 04:50:47;;;;;;;18.15;4.47;;;18.00;99.90;;;;;;5072929;28;20215;-49
2023/07/14 04:53:14;;;;;;;9.65;3.88;;;18.10;99.90;;;;;;5073105;28;20174;-49
2023/07/14 04:55:42;;;;;;;8.82;3.17;;;18.30;99.90;;;;;;5072771;28;20219;-49
2023/07/14 04:58:09;;;;;;;6.40;2.80;;;18.40;99.90;;;;;;5072726;28;20204;-50
2023/07/14 05:00:36;;;;;;;7.38;3.40;;;18.50;99.90;;;;;;5072415;28;20223;-50
2023/07/14 05:03:02;;;;;;;6.05;3.15;;;18.70;99.90;;;;;;5054970;28;20521;-48
2023/07/14 05:05:28;;;;;;;7.50;2.90;;;18.80;99.90;;;;;;5072978;28;20177;-49
2023/07/14 05:07:55;;;;;;;6.22;3.45;;;18.80;99.90;;;;;;5072707;28;20237;-50
2023/07/14 05:10:23;;;;;;;5.40;3.00;;;18.80;99.90;;;;;;5054313;28;20273;-50
2023/07/14 05:12:53;;;;;;;6.43;3.40;;;18.80;99.90;;;;;;5072350;28;20253;-49
2023/07/14 05:15:19;;;;;;;5.68;2.95;;;18.90;99.90;;;;;;5072397;28;20162;-49
2023/07/14 05:17:45;;;;;;;8.13;3.42;;;19.10;99.90;;;;;;5072307;28;20648;-49
2023/07/14 05:20:13;;;;;;;7.47;3.38;;;19.30;99.90;;;;;;5072269;28;20169;-50
2023/07/14 05:22:44;;;;;;;4.68;2.90;;;19.30;99.90;;;;;;5072155;28;20170;-49
2023/07/14 05:25:10;;;;;;;9.07;3.60;;;19.30;99.90;;;;;;5071954;28;20223;-50
2023/07/14 05:27:36;;;;;;;6.00;2.75;;;19.40;99.90;;;;;;5071806;28;20205;-50
2023/07/14 05:30:03;;;;;;;6.57;3.40;;;19.40;99.90;;;;;;5072260;28;20254;-52
2023/07/14 05:32:29;;;;;;;7.47;3.25;;;19.40;99.90;;;;;;5072220;28;20177;-52
2023/07/14 05:34:55;;;;;;;5.45;2.70;;;19.50;99.90;;;;;;5071886;28;20208;-53
2023/07/14 05:37:22;;;;;;;7.20;3.00;;;19.60;99.90;;;;;;5054164;28;20161;-53
2023/07/14 05:39:48;;;;;;;9.85;3.05;;;19.70;99.90;;;;;;5072012;28;20164;-52
2023/07/14 05:42:14;;;;;;;8.48;3.10;;;19.70;99.90;;;;;;5071936;28;20174;-51
2023/07/14 05:44:39;;;;;;;11.13;3.38;;;19.70;99.90;;;;;;5071928;28;20250;-50
2023/07/14 05:47:05;;;;;;;9.65;2.90;;;19.70;99.90;;;;;;5071731;28;20220;-50
2023/07/14 05:49:31;;;;;;;11.00;3.28;;;19.80;99.90;;;;;;5072206;28;20257;-51
2023/07/14 05:51:56;;;;;;;7.93;3.08;;;20.00;99.90;;;;;;5071167;28;20173;-50
2023/07/14 05:54:23;;;;;;;7.90;3.00;;;20.20;99.90;;;;;;5071634;28;20164;-52
2023/07/14 05:56:48;;;;;;;5.45;3.08;;;20.40;99.90;;;;;;5071590;28;20648;-50
2023/07/14 05:59:14;;;;;;;6.93;3.10;;;20.50;99.90;;;;;;5071632;28;20166;-50
2023/07/14 06:01:39;;;;;;;8.40;3.72;;;20.30;99.90;;;;;;5071809;28;20173;-50
2023/07/14 06:04:05;;;;;;;9.60;3.50;;;20.30;99.90;;;;;;5071388;28;20165;-49
2023/07/14 06:06:32;;;;;;;5.43;2.78;;;20.20;99.90;;;;;;5071731;28;20641;-50
2023/07/14 06:08:58;;;;;;;9.85;3.17;;;21.20;99.90;;;;;;5072026;28;20621;-51
2023/07/14 06:11:24;;;;;;;11.63;3.08;;;20.60;99.90;;;;;;5071291;28;20217;-51
2023/07/14 06:13:49;;;;;;;7.50;2.67;;;20.70;99.90;;;;;;5071522;28;20180;-50
2023/07/14 06:16:15;;;;;;;8.65;3.03;;;20.80;99.90;;;;;;5071477;28;20177;-50
2023/07/14 06:18:41;;;;;;;5.40;2.80;;;20.60;99.90;;;;;;5071611;28;20244;-52
2023/07/14 06:21:08;;;;;;;5.80;2.47;;;20.60;99.90;;;;;;5071375;28;20644;-50
2023/07/14 06:23:34;;;;;;;7.80;2.78;;;20.60;99.90;;;;;;5071661;28;20174;-50
2023/07/14 06:26:00;;;;;;;3.58;2.50;;;20.80;99.90;;;;;;5071769;28;20173;-50
2023/07/14 06:28:26;;;;;;;5.35;2.47;;;20.80;99.90;;;;;;5071322;28;20165;-50
2023/07/14 06:31:00;;;;;;;4.82;2.20;;;20.90;99.90;;;;;;5071210;28;20159;-50
2023/07/14 06:33:26;;;;;;;6.07;2.83;;;21.10;99.90;;;;;;5071318;28;20189;-50
2023/07/14 06:35:53;;;;;;;10.90;3.20;;;21.10;99.90;;;;;;5071250;28;20209;-50
2023/07/14 06:38:18;;;;;;;7.60;2.85;;;21.10;99.90;;;;;;5071363;28;20177;-50
2023/07/14 06:40:44;;;;;;;4.97;2.80;;;21.30;99.90;;;;;;5071146;28;20169;-50
2023/07/14 06:43:10;;;;;;;6.22;3.05;;;21.30;99.90;;;;;;5071169;28;20239;-50
2023/07/14 06:45:36;;;;;;;9.55;2.88;;;21.30;99.90;;;;;;5071166;28;20162;-50
2023/07/14 06:48:03;;;;;;;9.43;2.60;;;21.20;99.90;;;;;;5071120;28;20206;-50
2023/07/14 06:50:28;;;;;;;7.65;3.05;;;21.30;99.90;;;;;;5071423;28;20181;-51
2023/07/14 06:52:54;;;;;;;7.78;2.60;;;21.60;99.90;;;;;;5071147;28;20214;-50
2023/07/14 06:55:20;;;;;;;7.57;2.60;;;21.50;99.90;;;;;;5071290;28;20256;-50
2023/07/14 06:57:46;;;;;;;3.20;2.35;;;21.30;99.90;;;;;;5071056;28;20657;-52
2023/07/14 07:00:12;;;;;;;6.22;2.70;;;21.40;99.90;;;;;;5071035;28;20269;-53
2023/07/14 07:02:41;;;;;;;3.92;2.40;;;21.50;99.90;;;;;;5072562;28;20169;-50
2023/07/14 07:05:07;;;;;;;3.95;2.50;;;21.70;99.90;;;;;;5074969;28;20501;-51
2023/07/14 07:07:36;;;;;;;6.15;2.38;;;21.80;99.90;;;;;;5074699;28;20210;-50
2023/07/14 07:10:02;;;;;;;3.17;2.40;;;21.90;99.90;;;;;;5075001;28;20161;-52
2023/07/14 07:12:28;;;;;;;3.70;2.33;;;22.00;99.90;;;;;;5057150;28;20189;-52
2023/07/14 07:14:53;;;;;;;3.92;2.20;;;21.90;99.90;;;;;;5074583;28;20166;-52
2023/07/14 07:17:19;;;;;;;2.53;1.88;;;22.00;99.90;;;;;;5074642;28;20170;-50
2023/07/14 07:19:44;;;;;;;6.68;2.15;;;22.00;99.90;;;;;;5074525;28;20169;-53
2023/07/14 07:22:10;;;;;;;3.78;2.13;;;22.00;99.90;;;;;;5074881;28;20181;-51
2023/07/14 07:24:36;;;;;;;3.47;2.35;;;22.10;99.90;;;;;;5074395;28;20173;-49
2023/07/14 07:27:03;;;;;;;4.70;2.50;;;22.20;99.90;;;;;;5074787;28;20217;-51
2023/07/14 07:29:31;;;;;;;6.32;2.20;;;22.30;99.90;;;;;;5074729;28;20215;-51
2023/07/14 07:31:57;;;;;;;4.55;2.45;;;22.40;99.90;;;;;;5057149;28;20166;-51
2023/07/14 07:34:22;;;;;;;4.53;2.35;;;22.50;99.90;;;;;;5074280;28;20173;-51
2023/07/14 07:36:48;;;;;;;6.72;1.90;;;22.50;99.90;;;;;;5074193;28;20174;-52
2023/07/14 07:39:14;;;;;;;6.97;2.38;;;22.40;99.90;;;;;;5074194;28;20248;-51
2023/07/14 07:41:40;;;;;;;4.18;2.20;;;22.30;99.90;;;;;;5074003;28;20213;-51
2023/07/14 07:44:09;;;;;;;3.30;2.10;;;22.40;99.90;;;;;;5074063;28;20170;-51
2023/07/14 07:46:36;;;;;;;4.65;1.85;;;22.40;99.90;;;;;;5073961;28;20202;-52
2023/07/14 07:49:02;;;;;;;3.83;2.38;;;22.90;99.90;;;;;;5074056;28;20207;-50
2023/07/14 07:51:28;;;;;;;3.65;2.10;;;23.40;99.90;;;;;;5074528;28;20206;-52
2023/07/14 07:53:54;;;;;;;5.40;2.58;;;23.60;99.90;;;;;;5074141;28;20166;-50
2023/07/14 07:56:20;;;;;;;4.07;2.38;;;23.70;99.90;;;;;;5073753;28;20215;-49
2023/07/14 07:58:45;;;;;;;2.85;2.10;;;23.50;99.90;;;;;;5073732;28;20261;-50
2023/07/14 08:01:19;;;;;;;4.20;2.30;;;23.70;99.90;;;;;;5073816;28;20208;-52
2023/07/14 08:03:45;;;;;;;6.88;2.15;;;23.60;99.90;;;;;;5073930;28;20166;-51
2023/07/14 08:06:10;;;;;;;3.25;2.03;;;23.60;99.90;;;;;;5073591;28;20201;-50
2023/07/14 08:08:36;;;;;;;2.72;2.08;;;23.90;99.90;;;;;;5073678;28;20174;-52
2023/07/14 08:11:02;;;;;;;5.68;2.10;;;24.20;99.90;;;;;;5073348;28;20726;-51
2023/07/14 08:13:28;;;;;;;4.05;2.55;;;23.80;99.90;;;;;;5073883;28;20184;-49
2023/07/14 08:15:56;;;;;;;6.75;2.95;;;23.70;99.90;;;;;;5073530;28;20211;-49
2023/07/14 08:18:22;;;;;;;4.32;2.40;;;23.80;99.90;;;;;;5073476;28;20176;-49
2023/07/14 08:20:49;;;;;;;3.53;2.50;;;23.70;99.90;;;;;;5073414;28;20165;-50
2023/07/14 08:23:16;;;;;;;5.43;2.50;;;23.80;99.90;;;;;;5073468;28;20179;-49
2023/07/14 08:25:41;;;;;;;4.82;2.42;;;23.80;99.90;;;;;;5073606;28;20177;-49
2023/07/14 08:28:08;;;;;;;2.97;2.38;;;23.90;99.90;;;;;;5073231;28;20201;-49
2023/07/14 08:30:33;;;;;;;3.70;2.33;;;24.00;99.90;;;;;;5073195;28;20606;-49
2023/07/14 08:32:59;;;;;;;7.03;2.47;;;24.10;99.90;;;;;;5073806;28;20201;-49
2023/07/14 08:35:25;;;;;;;3.83;2.58;;;24.10;99.90;;;;;;5073190;28;20166;-51
2023/07/14 08:37:50;;;;;;;5.40;3.08;;;24.40;99.90;;;;;;5073120;28;20219;-50
2023/07/14 08:40:26;;;;;;;4.95;2.35;;;24.20;99.90;;;;;;5073121;28;20165;-52
2023/07/14 08:43:16;;;;;;;11.23;2.80;;;24.40;99.90;;;;;;5073255;28;20188;-52
2023/07/14 08:45:59;;;;;;;5.65;2.63;;;24.50;99.90;;;;;;5073105;28;20187;-50
2023/07/14 08:48:38;;;;;;;4.93;2.72;;;24.40;99.90;;;;;;5072815;28;20260;-49
2023/07/14 08:51:20;;;;;;;4.85;2.50;;;22.50;99.90;;;;;;5073037;28;20165;-50
2023/07/14 08:53:55;;;;;;;9.13;2.70;;;24.50;99.90;;;;;;5072755;28;20165;-49
2023/07/14 08:56:21;;;;;;;3.75;2.60;;;24.50;99.90;;;;;;5072921;28;20263;-50
2023/07/14 08:58:49;;;;;;;5.78;2.65;;;24.70;99.90;;;;;;5072687;28;20680;-49
2023/07/14 09:01:44;;;;;;;3.97;2.25;;;24.50;99.90;;;;;;5072568;28;20170;-49
2023/07/14 09:04:18;;;;;;;6.32;2.38;;;24.40;99.90;;;;;;5072842;28;20188;-49
2023/07/14 09:06:46;;;;;;;4.90;2.33;;;24.40;99.90;;;;;;5072488;28;20224;-49
2023/07/14 09:09:16;;;;;;;5.03;2.63;;;24.50;99.90;;;;;;5072726;28;20174;-50
2023/07/14 09:12:00;;;;;;;6.00;3.00;;;24.60;99.90;;;;;;5072294;28;20697;-49
2023/07/14 09:14:30;;;;;;;3.65;2.63;;;24.50;99.90;;;;;;5072774;28;20675;-51
2023/07/14 09:17:11;;;;;;;3.15;2.17;;;24.50;99.90;;;;;;5073033;28;20201;-52
2023/07/14 09:20:11;;;;;;;6.90;2.90;;;24.60;99.90;;;;;;5072425;28;20165;-50
2023/07/14 09:22:39;;;;;;;7.30;2.40;;;24.90;99.90;;;;;;5072268;28;20173;-51
2023/07/14 09:25:33;;;;;;;9.65;3.00;;;25.00;99.90;;;;;;5071973;28;20200;-52
2023/07/14 09:28:00;;;;;;;5.90;2.95;;;25.50;99.90;;;;;;5072500;28;20197;-52
2023/07/14 09:30:28;;;;;;;2.30;2.10;;;25.10;99.90;;;;;;5072119;28;20252;-51
2023/07/14 09:32:59;;;;;;;7.35;2.75;;;25.20;99.90;;;;;;5072255;28;20239;-52
2023/07/14 09:35:28;;;;;;;4.95;2.92;;;25.20;99.90;;;;;;5072044;28;20256;-52
2023/07/14 09:38:19;;;;;;;7.55;3.28;;;25.50;99.90;;;;;;5072132;28;20169;-51
2023/07/14 09:40:50;;;;;;;7.35;2.80;;;25.40;99.90;;;;;;5071866;28;20223;-52
2023/07/14 09:43:15;;;;;;;4.78;2.92;;;25.30;99.90;;;;;;5072149;28;20208;-52
2023/07/14 09:45:41;;;;;;;5.45;2.90;;;25.30;99.90;;;;;;5071879;28;20552;-52
2023/07/14 09:48:20;;;;;;;5.15;2.80;;;25.70;99.90;;;;;;5072013;28;20216;-50
2023/07/14 09:51:10;;;;;;;6.28;3.05;;;25.70;99.90;;;;;;5072036;28;20196;-51
2023/07/14 09:53:37;;;;;;;3.60;2.83;;;25.80;99.90;;;;;;5071668;28;20636;-51
2023/07/14 09:56:10;;;;;;;5.28;2.95;;;26.30;99.90;;;;;;5071743;28;20169;-51
2023/07/14 09:58:36;;;;;;;4.88;2.55;;;26.50;99.90;;;;;;5071659;28;20161;-51
2023/07/14 10:01:06;;;;;;;6.68;2.63;;;27.10;99.90;;;;;;5071671;28;20527;-52
2023/07/14 10:03:42;;;;;;;5.22;2.65;;;26.70;99.90;;;;;;5071840;28;20173;-52
2023/07/14 10:06:20;;;;;;;4.95;2.55;;;26.30;99.90;;;;;;5071594;28;20157;-50
2023/07/14 10:08:54;;;;;;;4.97;2.58;;;26.20;99.90;;;;;;5071572;28;20215;-52
2023/07/14 10:11:38;;;;;;;4.60;2.83;;;25.80;99.90;;;;;;5071405;28;20223;-50
2023/07/14 10:14:25;;;;;;;6.00;2.80;;;25.80;99.90;;;;;;5071482;28;20177;-50
2023/07/14 10:16:53;;;;;;;7.15;2.17;;;26.00;99.90;;;;;;5071716;28;20170;-51
2023/07/14 10:19:20;;;;;;;6.90;2.75;;;26.10;99.90;;;;;;5071311;28;20629;-50
2023/07/14 10:21:59;;;;;;;4.13;2.20;;;26.00;99.90;;;;;;5070611;28;20165;-50
2023/07/14 10:24:26;;;;;;;3.22;2.78;;;26.30;99.90;;;;;;5071173;28;20168;-51
2023/07/14 10:26:57;;;;;;;4.05;2.75;;;26.60;99.90;;;;;;5071059;28;20193;-50
2023/07/14 10:29:25;;;;;;;5.38;2.60;;;26.50;99.90;;;;;;5071062;28;20170;-50
2023/07/14 10:32:11;;;;;;;4.55;2.65;;;26.60;99.90;;;;;;5053419;28;20692;-49
2023/07/14 10:34:39;;;;;;;6.88;2.80;;;26.70;99.90;;;;;;5071269;28;20256;-51
2023/07/14 10:37:18;;;;;;;5.25;2.38;;;27.20;99.90;;;;;;5071760;28;20257;-49
2023/07/14 10:39:48;;;;;;;5.35;2.80;;;26.40;99.90;;;;;;5075352;28;20521;-51
2023/07/14 10:42:20;;;;;;;7.80;2.80;;;26.00;99.90;;;;;;5075099;28;20244;-50
2023/07/14 10:44:46;;;;;;;4.45;2.33;;;26.20;99.90;;;;;;5075119;28;20256;-49
2023/07/14 10:47:20;;;;;;;8.00;2.60;;;26.00;99.90;;;;;;5057045;28;20335;-51
2023/07/14 10:50:17;;;;;;;5.63;2.60;;;26.20;99.90;;;;;;5075037;28;20244;-52
2023/07/14 10:52:49;;;;;;;3.92;2.35;;;26.80;99.90;;;;;;5074868;28;20172;-52
2023/07/14 10:55:23;;;;;;;6.43;3.00;;;26.30;99.90;;;;;;5074802;28;20621;-51
2023/07/14 10:58:01;;;;;;;3.40;2.60;;;26.20;99.90;;;;;;5074969;28;20241;-52
2023/07/14 11:00:40;;;;;;;4.40;2.35;;;26.20;99.90;;;;;;5075277;28;20526;-51
2023/07/14 11:03:26;;;;;;;5.95;2.55;;;26.60;99.20;;;;;;5074711;28;20157;-49
2023/07/14 11:06:13;;;;;;;3.58;2.42;;;27.20;99.10;;;;;;5074569;28;20590;-49
2023/07/14 11:08:39;;;;;;;5.88;3.00;;;27.40;97.00;;;;;;5074603;28;20173;-50
2023/07/14 11:11:32;;;;;;;4.95;3.33;;;27.80;95.70;;;;;;5074372;28;20247;-51
2023/07/14 11:14:10;;;;;;;2.78;2.47;;;27.60;95.30;;;;;;5074964;28;20194;-52
2023/07/14 11:16:36;;;;;;;4.00;2.70;;;27.50;94.80;;;;;;5074418;28;20531;-52
2023/07/14 11:19:06;;;;;;;5.45;2.47;;;27.90;93.80;;;;;;5074127;28;20177;-52
2023/07/14 11:22:02;;;;;;;5.97;2.70;;;28.00;93.00;;;;;;5074552;28;20177;-52
2023/07/14 11:24:37;;;;;;;7.32;2.50;;;28.10;92.70;;;;;;5074607;28;20533;-52
2023/07/14 11:27:25;;;;;;;5.85;3.03;;;28.30;92.60;;;;;;5074156;28;20204;-52
2023/07/14 11:30:06;;;;;;;6.25;2.85;;;28.40;91.90;;;;;;5074218;28;20603;-51
2023/07/14 11:32:50;;;;;;;6.00;3.00;;;28.40;90.80;;;;;;5073939;28;20581;-52
2023/07/14 11:35:29;;;;;;;3.95;2.58;;;28.00;90.40;;;;;;5073691;28;20203;-52
2023/07/14 11:37:57;;;;;;;7.40;3.20;;;28.20;89.20;;;;;;5073976;28;20169;-51
2023/07/14 11:40:25;;;;;;;3.95;2.90;;;28.30;90.00;;;;;;5056039;28;20169;-52
2023/07/14 11:42:58;;;;;;;9.40;2.97;;;28.40;89.30;;;;;;5073855;28;20180;-52
2023/07/14 11:45:27;;;;;;;2.85;2.38;;;28.30;88.60;;;;;;5073868;28;20776;-50
2023/07/14 11:47:57;;;;;;;9.50;3.10;;;27.90;88.00;;;;;;5073488;28;20201;-49
2023/07/14 11:50:28;;;;;;;3.28;2.58;;;27.80;90.10;;;;;;5072718;28;20285;-50
2023/07/14 11:53:19;;;;;;;5.22;3.00;;;28.10;87.60;;;;;;5073899;28;20261;-51
2023/07/14 11:55:49;;;;;;;6.40;2.90;;;28.30;88.10;;;;;;5062121;28;20173;-50
2023/07/14 11:58:23;;;;;;;6.15;2.80;;;28.60;86.50;;;;;;5073691;28;20166;-53
2023/07/14 12:01:32;;;;;;;6.00;3.03;;;28.80;88.40;;;;;;5073653;28;20166;-52
2023/07/14 12:04:23;;;;;;;4.32;2.95;;;29.00;87.80;;;;;;5073279;28;20176;-52
2023/07/14 12:07:09;;;;;;;5.78;3.38;;;28.60;85.50;;;;;;5073419;28;20197;-52
2023/07/14 12:09:34;;;;;;;5.28;3.03;;;28.50;85.60;;;;;;5073374;28;20157;-52
2023/07/14 12:12:01;;;;;;;7.35;3.00;;;28.90;86.90;;;;;;5073241;28;20224;-49
2023/07/14 12:14:52;;;;;;;6.60;3.53;;;28.90;86.20;;;;;;5073823;28;20528;-52
2023/07/14 12:17:36;;;;;;;4.57;2.63;;;28.60;84.80;;;;;;5072507;28;20185;-52
2023/07/14 12:20:12;;;;;;;4.05;3.25;;;28.80;83.80;;;;;;5073256;28;20165;-52
2023/07/14 12:22:41;;;;;;;3.63;2.95;;;29.20;83.70;;;;;;5073278;28;20200;-52
2023/07/14 12:25:15;;;;;;;3.42;2.83;;;29.50;83.50;;;;;;5073179;28;20517;-52
2023/07/14 12:27:50;;;;;;;4.97;3.08;;;29.40;85.40;;;;;;5073157;28;20719;-52
2023/07/14 12:30:21;;;;;;;6.78;3.40;;;29.40;83.40;;;;;;5073032;28;20165;-52
2023/07/14 12:32:48;;;;;;;6.85;3.10;;;29.60;80.90;;;;;;5072785;28;20522;-52
2023/07/14 12:35:16;;;;;;;4.72;3.00;;;29.40;80.00;;;;;;5072866;28;20641;-53
2023/07/14 12:37:41;;;;;;;4.85;2.83;;;29.50;80.30;;;;;;5072917;28;20169;-52
2023/07/14 12:40:25;;;;;;;4.63;3.35;;;29.60;80.70;;;;;;5072684;28;20625;-52
2023/07/14 12:42:52;;;;;;;7.55;3.28;;;29.30;80.30;;;;;;5073079;28;20173;-52
2023/07/14 12:45:20;;;;;;;4.93;2.97;;;29.40;80.60;;;;;;5072764;28;20185;-52
2023/07/14 12:47:48;;;;;;;4.35;3.40;;;29.10;80.20;;;;;;5072337;28;20197;-52
2023/07/14 12:50:20;;;;;;;8.50;3.13;;;29.00;79.30;;;;;;5072842;28;20596;-52
2023/07/14 12:52:48;;;;;;;3.70;3.30;;;28.70;80.40;;;;;;5072601;28;20205;-52
2023/07/14 12:55:18;;;;;;;7.50;2.90;;;28.80;82.60;;;;;;5072500;28;20169;-53
2023/07/14 12:57:46;;;;;;;3.80;3.05;;;28.90;79.60;;;;;;5072414;28;20567;-52
2023/07/14 13:00:32;;;;;;;6.47;3.03;;;28.50;80.70;;;;;;5072247;28;20173;-52